sensor_id;sensor_type;location;lat;lon;timestamp;pressure;altitude;pressure_sealevel;temperature;humidity
54194;BME280;40102;50.906;6.972;2022-07-12T00:00:36;101809.03;;;18.73;69.82
54194;BME280;40102;50.906;6.972;2022-07-12T00:03:01;101804.06;;;18.67;70.56
54194;BME280;40102;50.906;6.972;2022-07-12T00:05:27;101800.47;;;18.66;70.57
54194;BME280;40102;50.906;6.972;2022-07-12T00:07:52;101796.69;;;18.69;70.40
54194;BME280;40102;50.906;6.972;2022-07-12T00:10:17;101798.06;;;18.74;69.88
54194;BME280;40102;50.906;6.972;2022-07-12T00:12:43;101799.69;;;18.77;69.58
54194;BME280;40102;50.906;6.972;2022-07-12T00:15:09;101801.19;;;18.81;69.54
54194;BME280;40102;50.906;6.972;2022-07-12T00:17:35;101804.47;;;18.73;69.02
54194;BME280;40102;50.906;6.972;2022-07-12T00:20:00;101790.59;;;18.53;70.27
54194;BME280;40102;50.906;6.972;2022-07-12T00:22:26;101797.22;;;18.49;70.97
54194;BME280;40102;50.906;6.972;2022-07-12T00:24:53;101793.66;;;18.48;71.23
54194;BME280;40102;50.906;6.972;2022-07-12T00:27:19;101792.13;;;18.57;70.88
54194;BME280;40102;50.906;6.972;2022-07-12T00:29:44;101789.09;;;18.61;70.42
54194;BME280;40102;50.906;6.972;2022-07-12T00:32:09;101786.06;;;18.66;70.26
54194;BME280;40102;50.906;6.972;2022-07-12T00:34:35;101787.47;;;18.71;70.06
54194;BME280;40102;50.906;6.972;2022-07-12T00:37:00;101782.91;;;18.72;69.77
54194;BME280;40102;50.906;6.972;2022-07-12T00:39:26;101784.75;;;18.71;69.99
54194;BME280;40102;50.906;6.972;2022-07-12T00:41:51;101779.44;;;18.70;69.75
54194;BME280;40102;50.906;6.972;2022-07-12T00:44:16;101780.19;;;18.72;69.91
54194;BME280;40102;50.906;6.972;2022-07-12T00:46:42;101784.63;;;18.73;69.86
54194;BME280;40102;50.906;6.972;2022-07-12T00:49:08;101781.06;;;18.72;69.73
54194;BME280;40102;50.906;6.972;2022-07-12T00:51:34;101781.06;;;18.72;69.53
54194;BME280;40102;50.906;6.972;2022-07-12T00:53:59;101781.06;;;18.72;69.62
54194;BME280;40102;50.906;6.972;2022-07-12T00:56:25;101781.84;;;18.62;69.48
54194;BME280;40102;50.906;6.972;2022-07-12T00:58:50;101765.16;;;18.42;70.19
54194;BME280;40102;50.906;6.972;2022-07-12T01:01:16;101769.16;;;18.37;71.16
54194;BME280;40102;50.906;6.972;2022-07-12T01:03:42;101768.19;;;18.38;71.39
54194;BME280;40102;50.906;6.972;2022-07-12T01:06:07;101764.41;;;18.40;71.07
54194;BME280;40102;50.906;6.972;2022-07-12T01:08:33;101752.47;;;18.43;70.75
54194;BME280;40102;50.906;6.972;2022-07-12T01:11:00;101754.09;;;18.45;70.70
54194;BME280;40102;50.906;6.972;2022-07-12T01:13:25;101754.75;;;18.49;70.61
54194;BME280;40102;50.906;6.972;2022-07-12T01:15:52;101755.72;;;18.48;70.22
54194;BME280;40102;50.906;6.972;2022-07-12T01:18:18;101757.56;;;18.48;70.27
54194;BME280;40102;50.906;6.972;2022-07-12T01:20:45;101761.03;;;18.50;70.37
54194;BME280;40102;50.906;6.972;2022-07-12T01:23:12;101755.97;;;18.32;69.90
54194;BME280;40102;50.906;6.972;2022-07-12T01:25:38;101753.81;;;17.87;72.34
54194;BME280;40102;50.906;6.972;2022-07-12T01:28:03;101755.00;;;17.43;74.48
54194;BME280;40102;50.906;6.972;2022-07-12T01:30:29;101759.25;;;17.20;76.13
54194;BME280;40102;50.906;6.972;2022-07-12T01:32:55;101765.38;;;17.09;77.03
54194;BME280;40102;50.906;6.972;2022-07-12T01:35:21;101756.25;;;16.98;78.16
54194;BME280;40102;50.906;6.972;2022-07-12T01:37:47;101768.63;;;16.88;78.64
54194;BME280;40102;50.906;6.972;2022-07-12T01:40:15;101765.97;;;16.73;79.48
54194;BME280;40102;50.906;6.972;2022-07-12T01:42:41;101768.56;;;16.75;80.04
54194;BME280;40102;50.906;6.972;2022-07-12T01:45:09;101771.78;;;16.94;80.00
54194;BME280;40102;50.906;6.972;2022-07-12T01:47:34;101777.63;;;17.15;78.84
54194;BME280;40102;50.906;6.972;2022-07-12T01:50:01;101766.59;;;17.18;77.54
54194;BME280;40102;50.906;6.972;2022-07-12T01:52:26;101774.25;;;17.11;78.13
54194;BME280;40102;50.906;6.972;2022-07-12T01:54:53;101778.53;;;17.01;78.34
54194;BME280;40102;50.906;6.972;2022-07-12T01:57:19;101784.94;;;16.86;78.59
54194;BME280;40102;50.906;6.972;2022-07-12T01:59:45;101776.00;;;16.71;79.24
54194;BME280;40102;50.906;6.972;2022-07-12T02:02:10;101776.56;;;16.62;80.06
54194;BME280;40102;50.906;6.972;2022-07-12T02:04:36;101771.28;;;16.46;80.68
54194;BME280;40102;50.906;6.972;2022-07-12T02:07:02;101773.69;;;16.37;81.35
54194;BME280;40102;50.906;6.972;2022-07-12T02:09:28;101778.31;;;16.35;82.44
54194;BME280;40102;50.906;6.972;2022-07-12T02:11:54;101773.22;;;16.30;81.90
54194;BME280;40102;50.906;6.972;2022-07-12T02:14:19;101785.44;;;16.22;82.03
54194;BME280;40102;50.906;6.972;2022-07-12T02:16:45;101795.47;;;16.19;82.03
54194;BME280;40102;50.906;6.972;2022-07-12T02:19:11;101793.94;;;16.15;82.62
54194;BME280;40102;50.906;6.972;2022-07-12T02:21:37;101791.91;;;16.19;83.31
54194;BME280;40102;50.906;6.972;2022-07-12T02:24:03;101794.59;;;16.19;82.11
54194;BME280;40102;50.906;6.972;2022-07-12T02:26:29;101798.75;;;16.10;82.11
54194;BME280;40102;50.906;6.972;2022-07-12T02:28:54;101791.13;;;16.03;82.32
54194;BME280;40102;50.906;6.972;2022-07-12T02:31:19;101786.00;;;15.98;82.70
54194;BME280;40102;50.906;6.972;2022-07-12T02:33:45;101795.34;;;15.93;82.90
54194;BME280;40102;50.906;6.972;2022-07-12T02:36:10;101785.97;;;15.84;83.22
54194;BME280;40102;50.906;6.972;2022-07-12T02:38:36;101790.59;;;15.82;83.54
54194;BME280;40102;50.906;6.972;2022-07-12T02:41:01;101795.22;;;15.80;83.41
54194;BME280;40102;50.906;6.972;2022-07-12T02:43:29;101800.72;;;15.78;83.56
54194;BME280;40102;50.906;6.972;2022-07-12T02:46:02;101791.06;;;15.74;84.03
54194;BME280;40102;50.906;6.972;2022-07-12T02:48:28;101793.66;;;15.76;83.62
54194;BME280;40102;50.906;6.972;2022-07-12T02:50:53;101798.38;;;15.72;83.59
54194;BME280;40102;50.906;6.972;2022-07-12T02:53:19;101800.41;;;15.69;83.94
54194;BME280;40102;50.906;6.972;2022-07-12T02:55:44;101806.06;;;15.64;83.76
54194;BME280;40102;50.906;6.972;2022-07-12T02:58:10;101811.63;;;15.61;84.40
54194;BME280;40102;50.906;6.972;2022-07-12T03:00:37;101802.50;;;15.64;84.31
54194;BME280;40102;50.906;6.972;2022-07-12T03:03:02;101801.44;;;15.66;84.00
54194;BME280;40102;50.906;6.972;2022-07-12T03:05:28;101802.59;;;15.62;83.74
54194;BME280;40102;50.906;6.972;2022-07-12T03:07:53;101810.59;;;15.64;84.14
54194;BME280;40102;50.906;6.972;2022-07-12T03:10:18;101802.41;;;15.65;83.63
54194;BME280;40102;50.906;6.972;2022-07-12T03:12:44;101806.75;;;15.68;83.04
54194;BME280;40102;50.906;6.972;2022-07-12T03:15:10;101802.91;;;15.58;83.64
54194;BME280;40102;50.906;6.972;2022-07-12T03:17:35;101807.16;;;15.46;84.47
54194;BME280;40102;50.906;6.972;2022-07-12T03:20:02;101802.22;;;15.38;84.94
54194;BME280;40102;50.906;6.972;2022-07-12T03:22:29;101803.63;;;15.30;85.60
54194;BME280;40102;50.906;6.972;2022-07-12T03:24:54;101795.97;;;15.22;85.87
54194;BME280;40102;50.906;6.972;2022-07-12T03:27:20;101800.69;;;15.18;86.45
54194;BME280;40102;50.906;6.972;2022-07-12T03:29:45;101792.78;;;15.15;86.65
54194;BME280;40102;50.906;6.972;2022-07-12T03:32:10;101793.56;;;15.17;86.93
54194;BME280;40102;50.906;6.972;2022-07-12T03:34:36;101804.25;;;15.19;87.04
54194;BME280;40102;50.906;6.972;2022-07-12T03:37:03;101802.84;;;15.28;87.08
54194;BME280;40102;50.906;6.972;2022-07-12T03:39:29;101801.94;;;15.43;86.88
54194;BME280;40102;50.906;6.972;2022-07-12T03:41:54;101807.41;;;15.57;86.09
54194;BME280;40102;50.906;6.972;2022-07-12T03:44:19;101807.94;;;15.78;85.83
54194;BME280;40102;50.906;6.972;2022-07-12T03:46:45;101810.09;;;16.01;84.98
54194;BME280;40102;50.906;6.972;2022-07-12T03:49:10;101808.47;;;16.13;82.44
54194;BME280;40102;50.906;6.972;2022-07-12T03:51:36;101808.19;;;16.03;82.10
54194;BME280;40102;50.906;6.972;2022-07-12T03:54:01;101804.41;;;15.92;81.96
54194;BME280;40102;50.906;6.972;2022-07-12T03:56:26;101824.13;;;15.78;82.53
54194;BME280;40102;50.906;6.972;2022-07-12T03:59:10;101819.38;;;15.67;83.63
54194;BME280;40102;50.906;6.972;2022-07-12T04:01:35;101819.84;;;15.60;83.87
54194;BME280;40102;50.906;6.972;2022-07-12T04:04:01;101825.75;;;15.50;84.10
54194;BME280;40102;50.906;6.972;2022-07-12T04:06:27;101817.75;;;15.49;84.30
54194;BME280;40102;50.906;6.972;2022-07-12T04:08:53;101819.25;;;15.39;84.43
54194;BME280;40102;50.906;6.972;2022-07-12T04:11:18;101827.59;;;15.34;85.48
54194;BME280;40102;50.906;6.972;2022-07-12T04:13:43;101826.28;;;15.41;86.20
54194;BME280;40102;50.906;6.972;2022-07-12T04:16:09;101828.50;;;15.65;86.43
54194;BME280;40102;50.906;6.972;2022-07-12T04:18:34;101827.03;;;15.89;84.64
54194;BME280;40102;50.906;6.972;2022-07-12T04:20:59;101830.50;;;15.91;83.05
54194;BME280;40102;50.906;6.972;2022-07-12T04:23:25;101827.91;;;15.90;82.35
54194;BME280;40102;50.906;6.972;2022-07-12T04:25:51;101836.84;;;15.76;82.72
54194;BME280;40102;50.906;6.972;2022-07-12T04:28:16;101831.97;;;15.67;83.46
54194;BME280;40102;50.906;6.972;2022-07-12T04:30:42;101832.56;;;15.72;84.09
54194;BME280;40102;50.906;6.972;2022-07-12T04:33:09;101828.81;;;15.74;83.68
54194;BME280;40102;50.906;6.972;2022-07-12T04:35:35;101833.63;;;15.69;82.91
54194;BME280;40102;50.906;6.972;2022-07-12T04:38:01;101829.78;;;15.59;83.42
54194;BME280;40102;50.906;6.972;2022-07-12T04:40:26;101833.06;;;15.48;84.12
54194;BME280;40102;50.906;6.972;2022-07-12T04:42:51;101837.00;;;15.43;84.66
54194;BME280;40102;50.906;6.972;2022-07-12T04:45:18;101836.56;;;15.35;85.26
54194;BME280;40102;50.906;6.972;2022-07-12T04:47:43;101844.13;;;15.44;86.39
54194;BME280;40102;50.906;6.972;2022-07-12T04:50:09;101843.66;;;15.51;85.83
54194;BME280;40102;50.906;6.972;2022-07-12T04:52:34;101840.88;;;15.53;84.81
54194;BME280;40102;50.906;6.972;2022-07-12T04:55:00;101847.28;;;15.66;85.36
54194;BME280;40102;50.906;6.972;2022-07-12T04:57:25;101848.13;;;15.82;84.91
54194;BME280;40102;50.906;6.972;2022-07-12T04:59:51;101841.81;;;15.98;84.22
54194;BME280;40102;50.906;6.972;2022-07-12T05:02:16;101842.88;;;16.09;82.98
54194;BME280;40102;50.906;6.972;2022-07-12T05:04:41;101845.78;;;16.06;82.71
54194;BME280;40102;50.906;6.972;2022-07-12T05:07:07;101840.19;;;16.09;82.46
54194;BME280;40102;50.906;6.972;2022-07-12T05:09:32;101850.03;;;16.10;82.32
54194;BME280;40102;50.906;6.972;2022-07-12T05:11:58;101842.97;;;16.08;82.96
54194;BME280;40102;50.906;6.972;2022-07-12T05:14:23;101848.97;;;16.13;83.01
54194;BME280;40102;50.906;6.972;2022-07-12T05:16:49;101849.38;;;16.21;82.48
54194;BME280;40102;50.906;6.972;2022-07-12T05:19:14;101855.94;;;16.31;81.71
54194;BME280;40102;50.906;6.972;2022-07-12T05:21:41;101856.91;;;16.30;81.06
54194;BME280;40102;50.906;6.972;2022-07-12T05:24:07;101846.97;;;16.31;82.09
54194;BME280;40102;50.906;6.972;2022-07-12T05:26:33;101849.66;;;16.31;81.74
54194;BME280;40102;50.906;6.972;2022-07-12T05:28:58;101850.53;;;16.31;81.58
54194;BME280;40102;50.906;6.972;2022-07-12T05:31:23;101851.78;;;16.26;82.62
54194;BME280;40102;50.906;6.972;2022-07-12T05:33:49;101856.13;;;16.28;82.47
54194;BME280;40102;50.906;6.972;2022-07-12T05:36:15;101854.47;;;16.26;82.62
54194;BME280;40102;50.906;6.972;2022-07-12T05:38:40;101856.13;;;16.28;81.99
54194;BME280;40102;50.906;6.972;2022-07-12T05:41:05;101860.75;;;16.26;82.52
54194;BME280;40102;50.906;6.972;2022-07-12T05:43:31;101856.53;;;16.36;81.89
54194;BME280;40102;50.906;6.972;2022-07-12T05:45:56;101861.44;;;16.44;81.95
54194;BME280;40102;50.906;6.972;2022-07-12T05:48:22;101865.78;;;16.46;81.57
54194;BME280;40102;50.906;6.972;2022-07-12T05:50:47;101864.81;;;16.47;81.91
54194;BME280;40102;50.906;6.972;2022-07-12T05:53:12;101867.13;;;16.53;81.42
54194;BME280;40102;50.906;6.972;2022-07-12T05:55:50;101861.97;;;16.65;80.87
54194;BME280;40102;50.906;6.972;2022-07-12T05:58:17;101860.63;;;16.72;80.70
54194;BME280;40102;50.906;6.972;2022-07-12T06:00:42;101859.34;;;16.77;80.32
54194;BME280;40102;50.906;6.972;2022-07-12T06:03:08;101861.56;;;16.85;80.30
54194;BME280;40102;50.906;6.972;2022-07-12T06:05:34;101862.44;;;16.86;80.23
54194;BME280;40102;50.906;6.972;2022-07-12T06:07:59;101862.53;;;16.84;80.31
54194;BME280;40102;50.906;6.972;2022-07-12T06:10:24;101878.28;;;16.77;80.81
54194;BME280;40102;50.906;6.972;2022-07-12T06:12:50;101869.09;;;16.80;81.17
54194;BME280;40102;50.906;6.972;2022-07-12T06:15:15;101876.03;;;16.84;81.28
54194;BME280;40102;50.906;6.972;2022-07-12T06:17:41;101863.22;;;16.88;80.64
54194;BME280;40102;50.906;6.972;2022-07-12T06:20:07;101859.03;;;16.96;80.15
54194;BME280;40102;50.906;6.972;2022-07-12T06:22:32;101862.13;;;17.04;79.92
54194;BME280;40102;50.906;6.972;2022-07-12T06:24:57;101866.94;;;17.13;80.23
54194;BME280;40102;50.906;6.972;2022-07-12T06:27:23;101861.22;;;17.18;80.07
54194;BME280;40102;50.906;6.972;2022-07-12T06:29:48;101867.88;;;17.27;79.15
54194;BME280;40102;50.906;6.972;2022-07-12T06:32:17;101870.25;;;17.31;79.83
54194;BME280;40102;50.906;6.972;2022-07-12T06:34:43;101880.00;;;17.34;79.73
54194;BME280;40102;50.906;6.972;2022-07-12T06:37:08;101882.22;;;17.41;79.48
54194;BME280;40102;50.906;6.972;2022-07-12T06:39:36;101875.06;;;17.40;78.64
54194;BME280;40102;50.906;6.972;2022-07-12T06:42:03;101875.84;;;17.42;78.55
54194;BME280;40102;50.906;6.972;2022-07-12T06:44:32;101876.72;;;17.43;78.57
54194;BME280;40102;50.906;6.972;2022-07-12T06:46:59;101880.06;;;17.46;79.00
54194;BME280;40102;50.906;6.972;2022-07-12T06:49:25;101877.16;;;17.49;79.31
54194;BME280;40102;50.906;6.972;2022-07-12T06:51:50;101879.66;;;17.53;78.63
54194;BME280;40102;50.906;6.972;2022-07-12T06:54:15;101887.16;;;17.62;78.58
54194;BME280;40102;50.906;6.972;2022-07-12T06:56:41;101898.38;;;17.70;78.51
54194;BME280;40102;50.906;6.972;2022-07-12T06:59:06;101906.28;;;17.73;78.10
54194;BME280;40102;50.906;6.972;2022-07-12T07:01:36;101911.94;;;17.83;77.46
54194;BME280;40102;50.906;6.972;2022-07-12T07:04:01;101909.59;;;17.91;76.99
54194;BME280;40102;50.906;6.972;2022-07-12T07:06:26;101910.06;;;17.97;76.45
54194;BME280;40102;50.906;6.972;2022-07-12T07:08:52;101912.44;;;18.02;76.70
54194;BME280;40102;50.906;6.972;2022-07-12T07:11:17;101913.88;;;18.07;76.11
54194;BME280;40102;50.906;6.972;2022-07-12T07:13:42;101915.38;;;18.11;76.36
54194;BME280;40102;50.906;6.972;2022-07-12T07:16:08;101920.50;;;18.16;75.75
54194;BME280;40102;50.906;6.972;2022-07-12T07:18:33;101925.69;;;18.19;75.21
54194;BME280;40102;50.906;6.972;2022-07-12T07:20:59;101930.69;;;18.25;74.82
54194;BME280;40102;50.906;6.972;2022-07-12T07:23:24;101913.56;;;18.25;74.75
54194;BME280;40102;50.906;6.972;2022-07-12T07:25:49;101925.81;;;18.30;75.46
54194;BME280;40102;50.906;6.972;2022-07-12T07:28:14;101930.06;;;18.34;75.00
54194;BME280;40102;50.906;6.972;2022-07-12T07:30:40;101924.63;;;18.34;75.07
54194;BME280;40102;50.906;6.972;2022-07-12T07:33:21;101917.59;;;18.32;75.01
54194;BME280;40102;50.906;6.972;2022-07-12T07:35:47;101916.09;;;18.40;75.92
54194;BME280;40102;50.906;6.972;2022-07-12T07:38:14;101908.63;;;18.44;76.11
54194;BME280;40102;50.906;6.972;2022-07-12T07:40:40;101921.19;;;18.45;75.58
54194;BME280;40102;50.906;6.972;2022-07-12T07:43:05;101920.97;;;18.48;75.40
54194;BME280;40102;50.906;6.972;2022-07-12T07:45:31;101916.09;;;18.53;75.03
54194;BME280;40102;50.906;6.972;2022-07-12T07:47:56;101919.34;;;18.58;74.90
54194;BME280;40102;50.906;6.972;2022-07-12T07:50:21;101915.38;;;18.64;75.48
54194;BME280;40102;50.906;6.972;2022-07-12T07:52:47;101915.91;;;18.69;76.12
54194;BME280;40102;50.906;6.972;2022-07-12T07:55:15;101918.09;;;18.76;76.21
54194;BME280;40102;50.906;6.972;2022-07-12T07:57:41;101915.16;;;18.80;76.02
54194;BME280;40102;50.906;6.972;2022-07-12T08:00:06;101921.75;;;18.88;76.23
54194;BME280;40102;50.906;6.972;2022-07-12T08:02:32;101923.28;;;18.92;75.32
54194;BME280;40102;50.906;6.972;2022-07-12T08:04:57;101928.38;;;18.97;74.86
54194;BME280;40102;50.906;6.972;2022-07-12T08:07:22;101914.59;;;19.00;74.25
54194;BME280;40102;50.906;6.972;2022-07-12T08:09:48;101915.34;;;19.02;73.91
54194;BME280;40102;50.906;6.972;2022-07-12T08:12:13;101922.38;;;19.04;74.18
54194;BME280;40102;50.906;6.972;2022-07-12T08:14:39;101908.72;;;19.06;74.23
54194;BME280;40102;50.906;6.972;2022-07-12T08:17:04;101902.22;;;19.08;73.50
54194;BME280;40102;50.906;6.972;2022-07-12T08:19:30;101910.13;;;19.12;73.32
54194;BME280;40102;50.906;6.972;2022-07-12T08:21:55;101908.06;;;19.15;73.50
54194;BME280;40102;50.906;6.972;2022-07-12T08:24:20;101908.69;;;19.19;72.43
54194;BME280;40102;50.906;6.972;2022-07-12T08:26:46;101912.81;;;19.24;71.96
54194;BME280;40102;50.906;6.972;2022-07-12T08:29:11;101906.63;;;19.22;71.51
54194;BME280;40102;50.906;6.972;2022-07-12T08:31:36;101910.84;;;19.26;71.25
54194;BME280;40102;50.906;6.972;2022-07-12T08:34:02;101905.31;;;19.28;70.93
54194;BME280;40102;50.906;6.972;2022-07-12T08:36:27;101910.50;;;19.31;71.09
54194;BME280;40102;50.906;6.972;2022-07-12T08:38:53;101901.38;;;19.32;70.46
54194;BME280;40102;50.906;6.972;2022-07-12T08:41:18;101898.34;;;19.36;71.04
54194;BME280;40102;50.906;6.972;2022-07-12T08:43:43;101896.25;;;19.40;71.46
54194;BME280;40102;50.906;6.972;2022-07-12T08:46:10;101898.28;;;19.49;71.65
54194;BME280;40102;50.906;6.972;2022-07-12T08:48:37;101898.84;;;19.54;71.14
54194;BME280;40102;50.906;6.972;2022-07-12T08:51:05;101897.63;;;19.58;70.75
54194;BME280;40102;50.906;6.972;2022-07-12T08:53:31;101896.44;;;19.62;70.61
54194;BME280;40102;50.906;6.972;2022-07-12T08:55:57;101887.94;;;19.67;68.92
54194;BME280;40102;50.906;6.972;2022-07-12T08:58:23;101880.78;;;19.66;68.66
54194;BME280;40102;50.906;6.972;2022-07-12T09:00:48;101887.59;;;19.71;68.56
54194;BME280;40102;50.906;6.972;2022-07-12T09:03:23;101890.94;;;19.75;68.95
54194;BME280;40102;50.906;6.972;2022-07-12T09:05:55;101887.88;;;19.80;69.30
54194;BME280;40102;50.906;6.972;2022-07-12T09:08:31;101890.13;;;19.86;67.43
54194;BME280;40102;50.906;6.972;2022-07-12T09:11:01;101887.28;;;19.87;67.12
54194;BME280;40102;50.906;6.972;2022-07-12T09:13:53;101888.19;;;19.99;67.45
54194;BME280;40102;50.906;6.972;2022-07-12T09:16:24;101880.09;;;20.10;68.23
54194;BME280;40102;50.906;6.972;2022-07-12T09:18:50;101871.97;;;20.21;67.14
54194;BME280;40102;50.906;6.972;2022-07-12T09:21:26;101864.09;;;20.29;66.56
54194;BME280;40102;50.906;6.972;2022-07-12T09:23:54;101867.06;;;20.37;67.26
54194;BME280;40102;50.906;6.972;2022-07-12T09:26:20;101873.78;;;20.45;67.48
54194;BME280;40102;50.906;6.972;2022-07-12T09:28:49;101867.97;;;20.49;66.27
54194;BME280;40102;50.906;6.972;2022-07-12T09:31:15;101880.34;;;20.53;65.96
54194;BME280;40102;50.906;6.972;2022-07-12T09:33:40;101870.34;;;20.54;66.08
54194;BME280;40102;50.906;6.972;2022-07-12T09:36:24;101872.69;;;20.58;65.48
54194;BME280;40102;50.906;6.972;2022-07-12T09:38:53;101871.34;;;20.64;64.81
54194;BME280;40102;50.906;6.972;2022-07-12T09:41:22;101865.16;;;20.73;63.73
54194;BME280;40102;50.906;6.972;2022-07-12T09:43:49;101861.41;;;20.85;63.18
54194;BME280;40102;50.906;6.972;2022-07-12T09:46:15;101876.97;;;20.94;62.60
54194;BME280;40102;50.906;6.972;2022-07-12T09:48:42;101869.06;;;21.02;61.29
54194;BME280;40102;50.906;6.972;2022-07-12T09:51:14;101870.28;;;21.10;61.49
54194;BME280;40102;50.906;6.972;2022-07-12T09:53:44;101864.22;;;21.17;62.15
54194;BME280;40102;50.906;6.972;2022-07-12T09:56:12;101869.81;;;21.27;60.91
54194;BME280;40102;50.906;6.972;2022-07-12T09:58:46;101875.25;;;21.27;60.15
54194;BME280;40102;50.906;6.972;2022-07-12T10:01:13;101874.50;;;21.25;60.05
54194;BME280;40102;50.906;6.972;2022-07-12T10:03:42;101876.13;;;21.27;59.77
54194;BME280;40102;50.906;6.972;2022-07-12T10:06:08;101879.56;;;21.29;59.47
54194;BME280;40102;50.906;6.972;2022-07-12T10:08:34;101879.31;;;21.32;59.65
54194;BME280;40102;50.906;6.972;2022-07-12T10:11:00;101885.25;;;21.38;60.15
54194;BME280;40102;50.906;6.972;2022-07-12T10:13:27;101886.09;;;21.38;58.55
54194;BME280;40102;50.906;6.972;2022-07-12T10:15:58;101881.63;;;21.48;58.63
54194;BME280;40102;50.906;6.972;2022-07-12T10:18:25;101884.69;;;21.55;57.93
54194;BME280;40102;50.906;6.972;2022-07-12T10:20:50;101883.72;;;21.56;56.97
54194;BME280;40102;50.906;6.972;2022-07-12T10:25:41;101882.81;;;21.66;56.60
54194;BME280;40102;50.906;6.972;2022-07-12T10:28:07;101879.41;;;21.85;55.52
54194;BME280;40102;50.906;6.972;2022-07-12T10:31:03;101884.16;;;22.04;55.18
54194;BME280;40102;50.906;6.972;2022-07-12T10:33:29;101878.78;;;22.14;55.01
54194;BME280;40102;50.906;6.972;2022-07-12T10:36:03;101873.53;;;22.22;52.18
54194;BME280;40102;50.906;6.972;2022-07-12T10:38:31;101871.34;;;22.16;49.82
54194;BME280;40102;50.906;6.972;2022-07-12T10:40:57;101869.63;;;22.15;50.57
54194;BME280;40102;50.906;6.972;2022-07-12T10:43:24;101863.56;;;22.11;51.11
54194;BME280;40102;50.906;6.972;2022-07-12T10:46:17;101864.09;;;22.05;51.85
54194;BME280;40102;50.906;6.972;2022-07-12T10:48:44;101870.50;;;22.15;53.96
54194;BME280;40102;50.906;6.972;2022-07-12T10:51:18;101862.19;;;22.17;52.63
54194;BME280;40102;50.906;6.972;2022-07-12T10:53:47;101856.88;;;22.15;53.44
54194;BME280;40102;50.906;6.972;2022-07-12T10:56:22;101860.13;;;22.09;54.28
54194;BME280;40102;50.906;6.972;2022-07-12T10:58:55;101854.41;;;22.12;54.20
54194;BME280;40102;50.906;6.972;2022-07-12T11:01:31;101857.06;;;22.23;53.61
54194;BME280;40102;50.906;6.972;2022-07-12T11:04:04;101854.66;;;22.30;53.00
54194;BME280;40102;50.906;6.972;2022-07-12T11:06:29;101858.38;;;22.29;48.84
54194;BME280;40102;50.906;6.972;2022-07-12T11:09:04;101862.03;;;22.18;49.74
54194;BME280;40102;50.906;6.972;2022-07-12T11:11:32;101852.81;;;22.30;51.93
54194;BME280;40102;50.906;6.972;2022-07-12T11:13:59;101861.91;;;22.71;51.41
54194;BME280;40102;50.906;6.972;2022-07-12T11:16:25;101851.88;;;22.72;51.52
54194;BME280;40102;50.906;6.972;2022-07-12T11:18:52;101852.69;;;22.62;51.72
54194;BME280;40102;50.906;6.972;2022-07-12T11:21:18;101849.31;;;22.49;51.31
54194;BME280;40102;50.906;6.972;2022-07-12T11:23:44;101855.19;;;22.45;51.82
54194;BME280;40102;50.906;6.972;2022-07-12T11:26:10;101861.09;;;22.50;51.96
54194;BME280;40102;50.906;6.972;2022-07-12T11:28:37;101849.38;;;22.59;49.06
54194;BME280;40102;50.906;6.972;2022-07-12T11:31:06;101845.94;;;22.57;48.99
54194;BME280;40102;50.906;6.972;2022-07-12T11:33:35;101846.50;;;22.60;49.45
54194;BME280;40102;50.906;6.972;2022-07-12T11:36:03;101838.03;;;22.84;49.67
54194;BME280;40102;50.906;6.972;2022-07-12T11:38:29;101834.38;;;23.05;49.82
54194;BME280;40102;50.906;6.972;2022-07-12T11:40:56;101829.81;;;23.15;50.06
54194;BME280;40102;50.906;6.972;2022-07-12T11:43:22;101826.06;;;23.16;48.73
54194;BME280;40102;50.906;6.972;2022-07-12T11:45:48;101826.50;;;23.21;48.30
54194;BME280;40102;50.906;6.972;2022-07-12T11:48:13;101828.53;;;23.19;49.04
54194;BME280;40102;50.906;6.972;2022-07-12T11:50:42;101819.22;;;23.41;48.96
54194;BME280;40102;50.906;6.972;2022-07-12T11:53:26;101809.88;;;23.53;46.96
54194;BME280;40102;50.906;6.972;2022-07-12T11:55:56;101806.63;;;23.59;47.55
54194;BME280;40102;50.906;6.972;2022-07-12T11:58:24;101808.91;;;23.83;47.14
54194;BME280;40102;50.906;6.972;2022-07-12T12:00:50;101807.31;;;24.00;47.20
54194;BME280;40102;50.906;6.972;2022-07-12T12:03:17;101807.13;;;24.20;46.07
54194;BME280;40102;50.906;6.972;2022-07-12T12:05:45;101809.56;;;24.23;47.07
54194;BME280;40102;50.906;6.972;2022-07-12T12:08:12;101808.13;;;24.19;47.21
54194;BME280;40102;50.906;6.972;2022-07-12T12:10:39;101808.00;;;24.11;46.16
54194;BME280;40102;50.906;6.972;2022-07-12T12:13:12;101802.09;;;24.06;47.09
54194;BME280;40102;50.906;6.972;2022-07-12T12:15:38;101801.66;;;24.11;46.95
54194;BME280;40102;50.906;6.972;2022-07-12T12:18:05;101796.06;;;24.12;46.74
54194;BME280;40102;50.906;6.972;2022-07-12T12:20:34;101797.47;;;24.36;45.40
54194;BME280;40102;50.906;6.972;2022-07-12T12:23:02;101793.09;;;24.52;44.79
54194;BME280;40102;50.906;6.972;2022-07-12T12:25:30;101783.78;;;24.73;44.16
54194;BME280;40102;50.906;6.972;2022-07-12T12:27:57;101791.72;;;24.94;43.07
54194;BME280;40102;50.906;6.972;2022-07-12T12:30:24;101786.69;;;24.99;44.25
54194;BME280;40102;50.906;6.972;2022-07-12T12:32:52;101790.84;;;25.03;43.72
54194;BME280;40102;50.906;6.972;2022-07-12T12:35:19;101786.38;;;25.02;43.81
54194;BME280;40102;50.906;6.972;2022-07-12T12:37:49;101791.56;;;25.05;43.58
54194;BME280;40102;50.906;6.972;2022-07-12T12:40:26;101787.66;;;25.07;43.82
54194;BME280;40102;50.906;6.972;2022-07-12T12:42:52;101784.13;;;25.15;44.09
54194;BME280;40102;50.906;6.972;2022-07-12T12:45:24;101784.06;;;25.25;44.36
54194;BME280;40102;50.906;6.972;2022-07-12T12:47:54;101778.59;;;25.42;43.91
54194;BME280;40102;50.906;6.972;2022-07-12T12:50:38;101777.41;;;25.63;40.93